Fertile, IA (50434)

5:36 PM CST on February 06, 2016 (GMT -0600)
Southwest Fertile | | Change Station
CLOSE
Current Station
Personal Weather Station
Location: Fertile, IA
Elevation: 1181 ft
Nearby Weather Stations
Active Advisory: Blizzard Watch

Elev 1181 ft 43.26 °N, 93.43 °W | Updated 50 seconds ago

Mostly Cloudy
Mostly Cloudy
29.1 °F
Feels Like 26 °F
N
3.2
Wind Variable Wind from SE
Gusts 8.3 mph

Today
High -- | Low -- °F
--% Chance of Precip.
Yesterday
High -- | Low -- °F
Precip. -- in
Pressure 30.02 in
Visibility 6.0 miles
Clouds Mostly Cloudy 600 ft
Overcast 11000 ft
Windchill 26 °F
Dew Point 29 °F
Humidity 99%
Rainfall 0.00 in
Snow Depth Not available.
7:24 AM 5:31 PM
Waning Crescent, 4% visible
SPECI KMCW 062304Z AUTO 19012KT 6SM BR BKN006 OVC110 M02/M03 A3002 RMK AO2 T10221033
Pressure 30.02 in
Visibility 6.0 miles
Clouds Mostly Cloudy 600 ft
Overcast 11000 ft
Windchill 26 °F
Dew Point 29 °F
Humidity 99%
Rainfall 0.00 in
Snow Depth Not available.
7:24 AM 5:31 PM
Waning Crescent, 4% visible
SPECI KMCW 062304Z AUTO 19012KT 6SM BR BKN006 OVC110 M02/M03 A3002 RMK AO2 T10221033

10-Day Weather Forecast

Almanac

Astronomy

Feb. 06, 2016 Rise Set
Actual Time
Civil Twilight
Nautical Twilight
Astronomical Twilight
Moon
Length of Visible Light
Length of Day
Tomorrow will be .
, % of the Moon is Illuminated

Today's Extremes

State Highs State Lows

Community

WunderPhotos

Upload Photos

1,891,098 photos uploaded!

WunderBlog® & News

Nearby

Air Quality

  Air Quality AQ Index Pollutant
Not available.

Snow Depth

Station Depth Elevation

Earthquake Activity

City Distance Mag. Time & Date
Minimum magnitude displayed is 2.5.

Coastal Water Temperatures

Place Temperature

Stations

Nearby Weather Stations

Station Location Temp. Windchill Dew Point Humidity Wind Precip. Elev Updated Type
                   

Watches & Warnings

Blizzard Watch
Issued: 4:00 PM CST Feb. 6, 2016 – National Weather Service

... Blizzard watch now in effect from Sunday afternoon through
Monday afternoon...

* timing... late Sunday afternoon through Monday afternoon.

* Storm total snow accumulations... up to 2 inches.

* Winds/visibility... northwest winds 30 to 35 mph with gusts to
near 50 mph. Visibilities may drop below one quarter mile for
an extended period with near whiteout conditions possible at
times.

* Impacts... considerable blowing and drifting snow can create
treacherous travel conditions and even lead to nearly
impossible travel in some areas.

Precautionary/preparedness actions...

A blizzard watch means there is a potential for falling and/or
blowing snow with strong winds and extremely poor visibilities.
This can lead to whiteout conditions and make travel very
dangerous.



Podrazik